UAAA

Almaty International Airport

Airport
ICAO code
UAAA
IATA Code
ALA
Summary
ICAO Region
APAC
ICAO Territory
Location

Almaty,

Serving
Almaty
Elevation
2234 ft
Coordinates
43° 21' 6" N , 77° 2' 11" E
KCC
BSk
Airport BS
Bird Strike
Airport WX
Fog
Metar
Observation
UAAA 170630Z 25002MPS 9999 FEW050 SCT100 26/M02 Q1013 NOSIG
Station
Almaty
Date/Time
2022-08-17 06:30:00
Wind direction
250°
Lowest cloud amount
few clouds
Temperature
26°C
Dew point
-2°C
Humidity
15%
QNH
1013 hPa
Weather condition
n/a

Description

International airport serving the city of Almaty.

Climatology

Cold Semi-arid climate (Köppen climate classification BSk). - Hot, sometimes extremely hot summers and cold, sometimes very cold winters. Some snowfall during the winter. Areas featuring cold semi-arid climates are sometimes subject to major temperature swings during a 24 hour period.

Runways

Designator Length Width Surface Rops
5/23 4397 45 ASP Yes/Yes

Airport map

Aerial View

Airport accidents

SKYbrary Partners:

Safety knowledge contributed by: